sensor_id;sensor_type;location;lat;lon;timestamp;P1;durP1;ratioP1;P2;durP2;ratioP2
43297;SDS011;28892;55.640;37.532;2023-06-10T00:00:51;9.57;;;2.63;;
43297;SDS011;28892;55.640;37.532;2023-06-10T00:03:19;6.10;;;3.03;;
43297;SDS011;28892;55.640;37.532;2023-06-10T00:05:48;3.38;;;2.40;;
43297;SDS011;28892;55.640;37.532;2023-06-10T00:08:14;5.43;;;2.80;;
43297;SDS011;28892;55.640;37.532;2023-06-10T00:10:45;2.80;;;2.50;;
43297;SDS011;28892;55.640;37.532;2023-06-10T00:13:11;3.30;;;2.42;;
43297;SDS011;28892;55.640;37.532;2023-06-10T00:15:37;3.45;;;2.70;;
43297;SDS011;28892;55.640;37.532;2023-06-10T00:18:03;4.13;;;3.22;;
43297;SDS011;28892;55.640;37.532;2023-06-10T00:20:35;4.95;;;2.72;;
43297;SDS011;28892;55.640;37.532;2023-06-10T00:23:09;3.63;;;2.33;;
43297;SDS011;28892;55.640;37.532;2023-06-10T00:25:35;3.83;;;2.75;;
43297;SDS011;28892;55.640;37.532;2023-06-10T00:28:01;4.85;;;2.75;;
43297;SDS011;28892;55.640;37.532;2023-06-10T00:30:29;3.40;;;3.00;;
43297;SDS011;28892;55.640;37.532;2023-06-10T00:32:55;3.90;;;2.92;;
43297;SDS011;28892;55.640;37.532;2023-06-10T00:35:21;4.15;;;3.00;;
43297;SDS011;28892;55.640;37.532;2023-06-10T00:37:47;3.22;;;2.80;;
43297;SDS011;28892;55.640;37.532;2023-06-10T00:40:14;3.92;;;2.58;;
43297;SDS011;28892;55.640;37.532;2023-06-10T00:42:40;3.88;;;2.50;;
43297;SDS011;28892;55.640;37.532;2023-06-10T00:45:06;2.90;;;2.17;;
43297;SDS011;28892;55.640;37.532;2023-06-10T00:47:35;4.47;;;2.47;;
43297;SDS011;28892;55.640;37.532;2023-06-10T00:50:02;6.13;;;3.13;;
43297;SDS011;28892;55.640;37.532;2023-06-10T00:52:30;3.17;;;2.28;;
43297;SDS011;28892;55.640;37.532;2023-06-10T00:54:56;4.03;;;2.63;;
43297;SDS011;28892;55.640;37.532;2023-06-10T00:57:24;3.67;;;2.10;;
43297;SDS011;28892;55.640;37.532;2023-06-10T00:59:50;2.95;;;2.65;;
43297;SDS011;28892;55.640;37.532;2023-06-10T01:02:16;2.92;;;2.30;;
43297;SDS011;28892;55.640;37.532;2023-06-10T01:04:42;6.82;;;2.72;;
43297;SDS011;28892;55.640;37.532;2023-06-10T01:07:10;4.13;;;2.60;;
43297;SDS011;28892;55.640;37.532;2023-06-10T01:09:53;3.28;;;2.42;;
43297;SDS011;28892;55.640;37.532;2023-06-10T01:15:05;4.88;;;2.63;;
43297;SDS011;28892;55.640;37.532;2023-06-10T01:17:33;4.72;;;2.40;;
43297;SDS011;28892;55.640;37.532;2023-06-10T01:20:01;5.15;;;2.88;;
43297;SDS011;28892;55.640;37.532;2023-06-10T01:22:37;3.72;;;2.78;;
43297;SDS011;28892;55.640;37.532;2023-06-10T01:25:09;4.95;;;2.53;;
43297;SDS011;28892;55.640;37.532;2023-06-10T01:27:46;2.92;;;2.50;;
43297;SDS011;28892;55.640;37.532;2023-06-10T01:30:15;4.15;;;2.40;;
43297;SDS011;28892;55.640;37.532;2023-06-10T01:32:50;3.70;;;2.50;;
43297;SDS011;28892;55.640;37.532;2023-06-10T01:35:17;5.80;;;2.63;;
43297;SDS011;28892;55.640;37.532;2023-06-10T01:37:48;4.05;;;2.53;;
43297;SDS011;28892;55.640;37.532;2023-06-10T01:40:15;4.07;;;2.42;;
43297;SDS011;28892;55.640;37.532;2023-06-10T01:42:42;6.45;;;2.60;;
43297;SDS011;28892;55.640;37.532;2023-06-10T01:45:08;3.08;;;2.50;;
43297;SDS011;28892;55.640;37.532;2023-06-10T01:47:35;3.75;;;2.40;;
43297;SDS011;28892;55.640;37.532;2023-06-10T01:50:01;4.63;;;2.65;;
43297;SDS011;28892;55.640;37.532;2023-06-10T01:52:31;4.47;;;2.30;;
43297;SDS011;28892;55.640;37.532;2023-06-10T01:55:03;4.72;;;2.55;;
43297;SDS011;28892;55.640;37.532;2023-06-10T01:57:30;3.80;;;2.70;;
43297;SDS011;28892;55.640;37.532;2023-06-10T01:59:56;2.78;;;2.28;;
43297;SDS011;28892;55.640;37.532;2023-06-10T02:02:22;2.47;;;2.05;;
43297;SDS011;28892;55.640;37.532;2023-06-10T02:04:48;4.70;;;2.38;;
43297;SDS011;28892;55.640;37.532;2023-06-10T02:07:14;5.55;;;2.60;;
43297;SDS011;28892;55.640;37.532;2023-06-10T02:09:40;3.05;;;2.20;;
43297;SDS011;28892;55.640;37.532;2023-06-10T02:12:06;2.85;;;2.15;;
43297;SDS011;28892;55.640;37.532;2023-06-10T02:14:34;2.10;;;1.88;;
43297;SDS011;28892;55.640;37.532;2023-06-10T02:17:01;3.72;;;2.60;;
43297;SDS011;28892;55.640;37.532;2023-06-10T02:19:26;6.28;;;2.40;;
43297;SDS011;28892;55.640;37.532;2023-06-10T02:21:53;3.38;;;1.80;;
43297;SDS011;28892;55.640;37.532;2023-06-10T02:24:20;2.80;;;2.15;;
43297;SDS011;28892;55.640;37.532;2023-06-10T02:26:45;5.10;;;1.95;;
43297;SDS011;28892;55.640;37.532;2023-06-10T02:29:13;4.63;;;2.40;;
43297;SDS011;28892;55.640;37.532;2023-06-10T02:31:41;5.35;;;2.65;;
43297;SDS011;28892;55.640;37.532;2023-06-10T02:34:16;3.40;;;2.55;;
43297;SDS011;28892;55.640;37.532;2023-06-10T02:36:51;4.10;;;2.25;;
43297;SDS011;28892;55.640;37.532;2023-06-10T02:39:23;3.20;;;2.40;;
43297;SDS011;28892;55.640;37.532;2023-06-10T02:42:12;4.75;;;2.40;;
43297;SDS011;28892;55.640;37.532;2023-06-10T02:44:38;2.75;;;2.30;;
43297;SDS011;28892;55.640;37.532;2023-06-10T02:47:18;4.07;;;2.47;;
43297;SDS011;28892;55.640;37.532;2023-06-10T02:49:53;5.40;;;2.22;;
43297;SDS011;28892;55.640;37.532;2023-06-10T02:52:43;3.00;;;2.47;;
43297;SDS011;28892;55.640;37.532;2023-06-10T02:56:09;4.10;;;2.75;;
43297;SDS011;28892;55.640;37.532;2023-06-10T02:59:03;3.92;;;2.05;;
43297;SDS011;28892;55.640;37.532;2023-06-10T03:04:49;3.45;;;2.50;;
43297;SDS011;28892;55.640;37.532;2023-06-10T03:07:25;3.90;;;2.60;;
43297;SDS011;28892;55.640;37.532;2023-06-10T03:14:46;4.15;;;2.25;;
43297;SDS011;28892;55.640;37.532;2023-06-10T03:21:16;2.40;;;2.20;;
43297;SDS011;28892;55.640;37.532;2023-06-10T03:23:56;4.15;;;2.42;;
43297;SDS011;28892;55.640;37.532;2023-06-10T03:26:34;5.55;;;2.72;;
43297;SDS011;28892;55.640;37.532;2023-06-10T03:29:05;5.78;;;2.38;;
43297;SDS011;28892;55.640;37.532;2023-06-10T03:31:41;2.70;;;2.30;;
43297;SDS011;28892;55.640;37.532;2023-06-10T03:34:13;5.95;;;2.70;;
43297;SDS011;28892;55.640;37.532;2023-06-10T03:37:07;4.28;;;2.33;;
43297;SDS011;28892;55.640;37.532;2023-06-10T03:40:13;3.97;;;2.45;;
43297;SDS011;28892;55.640;37.532;2023-06-10T03:43:15;3.05;;;2.20;;
43297;SDS011;28892;55.640;37.532;2023-06-10T03:45:54;5.28;;;2.47;;
43297;SDS011;28892;55.640;37.532;2023-06-10T03:48:25;3.40;;;2.70;;
43297;SDS011;28892;55.640;37.532;2023-06-10T03:50:59;4.72;;;2.35;;
43297;SDS011;28892;55.640;37.532;2023-06-10T03:53:30;3.08;;;2.38;;
43297;SDS011;28892;55.640;37.532;2023-06-10T03:55:56;5.18;;;3.03;;
43297;SDS011;28892;55.640;37.532;2023-06-10T03:58:28;2.67;;;2.03;;
43297;SDS011;28892;55.640;37.532;2023-06-10T04:01:16;4.40;;;2.70;;
43297;SDS011;28892;55.640;37.532;2023-06-10T04:04:28;4.55;;;2.72;;
43297;SDS011;28892;55.640;37.532;2023-06-10T04:10:38;3.55;;;2.38;;
43297;SDS011;28892;55.640;37.532;2023-06-10T04:13:04;4.60;;;2.75;;
43297;SDS011;28892;55.640;37.532;2023-06-10T04:15:38;3.63;;;2.50;;
43297;SDS011;28892;55.640;37.532;2023-06-10T04:18:09;4.10;;;2.20;;
43297;SDS011;28892;55.640;37.532;2023-06-10T04:20:42;3.20;;;2.25;;
43297;SDS011;28892;55.640;37.532;2023-06-10T04:23:26;4.03;;;2.92;;
43297;SDS011;28892;55.640;37.532;2023-06-10T04:26:24;3.50;;;2.10;;
43297;SDS011;28892;55.640;37.532;2023-06-10T04:29:30;3.35;;;1.85;;
43297;SDS011;28892;55.640;37.532;2023-06-10T04:32:50;3.13;;;2.05;;
43297;SDS011;28892;55.640;37.532;2023-06-10T04:35:23;4.85;;;2.03;;
43297;SDS011;28892;55.640;37.532;2023-06-10T04:37:53;2.80;;;2.05;;
43297;SDS011;28892;55.640;37.532;2023-06-10T04:40:33;7.55;;;2.10;;
43297;SDS011;28892;55.640;37.532;2023-06-10T04:43:03;6.20;;;2.00;;
43297;SDS011;28892;55.640;37.532;2023-06-10T04:45:54;2.58;;;1.92;;
43297;SDS011;28892;55.640;37.532;2023-06-10T04:48:26;4.82;;;1.45;;
43297;SDS011;28892;55.640;37.532;2023-06-10T04:51:06;1.65;;;1.27;;
43297;SDS011;28892;55.640;37.532;2023-06-10T04:54:02;2.63;;;1.70;;
43297;SDS011;28892;55.640;37.532;2023-06-10T04:56:31;2.28;;;1.80;;
43297;SDS011;28892;55.640;37.532;2023-06-10T05:07:32;3.53;;;1.50;;
43297;SDS011;28892;55.640;37.532;2023-06-10T05:09:58;5.75;;;1.90;;
43297;SDS011;28892;55.640;37.532;2023-06-10T05:12:24;2.17;;;1.67;;
43297;SDS011;28892;55.640;37.532;2023-06-10T05:14:50;2.65;;;1.88;;
43297;SDS011;28892;55.640;37.532;2023-06-10T05:17:15;4.32;;;2.05;;
43297;SDS011;28892;55.640;37.532;2023-06-10T05:23:26;3.55;;;1.75;;
43297;SDS011;28892;55.640;37.532;2023-06-10T05:25:53;4.40;;;1.90;;
43297;SDS011;28892;55.640;37.532;2023-06-10T05:28:19;3.10;;;1.77;;
43297;SDS011;28892;55.640;37.532;2023-06-10T05:30:45;9.52;;;2.20;;
43297;SDS011;28892;55.640;37.532;2023-06-10T05:33:11;1.90;;;1.50;;
43297;SDS011;28892;55.640;37.532;2023-06-10T05:35:37;2.67;;;1.90;;
43297;SDS011;28892;55.640;37.532;2023-06-10T05:38:14;2.88;;;1.60;;
43297;SDS011;28892;55.640;37.532;2023-06-10T05:40:43;2.88;;;1.70;;
43297;SDS011;28892;55.640;37.532;2023-06-10T05:43:09;2.35;;;2.00;;
43297;SDS011;28892;55.640;37.532;2023-06-10T05:45:38;2.38;;;1.60;;
43297;SDS011;28892;55.640;37.532;2023-06-10T05:48:05;4.55;;;2.00;;
43297;SDS011;28892;55.640;37.532;2023-06-10T05:50:34;2.28;;;1.90;;
43297;SDS011;28892;55.640;37.532;2023-06-10T05:53:26;2.90;;;1.73;;
43297;SDS011;28892;55.640;37.532;2023-06-10T05:55:52;5.80;;;2.20;;
43297;SDS011;28892;55.640;37.532;2023-06-10T05:58:30;4.93;;;1.90;;
43297;SDS011;28892;55.640;37.532;2023-06-10T06:00:56;4.93;;;2.15;;
43297;SDS011;28892;55.640;37.532;2023-06-10T06:03:21;3.40;;;1.92;;
43297;SDS011;28892;55.640;37.532;2023-06-10T06:05:47;3.85;;;1.88;;
43297;SDS011;28892;55.640;37.532;2023-06-10T06:08:16;2.63;;;1.70;;
43297;SDS011;28892;55.640;37.532;2023-06-10T06:10:47;3.78;;;1.60;;
43297;SDS011;28892;55.640;37.532;2023-06-10T06:17:42;4.65;;;1.77;;
43297;SDS011;28892;55.640;37.532;2023-06-10T06:20:32;3.90;;;1.65;;
43297;SDS011;28892;55.640;37.532;2023-06-10T06:22:58;4.28;;;1.75;;
43297;SDS011;28892;55.640;37.532;2023-06-10T06:25:56;2.95;;;1.63;;
43297;SDS011;28892;55.640;37.532;2023-06-10T06:28:25;2.75;;;1.90;;
43297;SDS011;28892;55.640;37.532;2023-06-10T06:34:30;3.50;;;1.88;;
43297;SDS011;28892;55.640;37.532;2023-06-10T06:37:01;4.97;;;1.83;;
43297;SDS011;28892;55.640;37.532;2023-06-10T06:39:47;3.90;;;2.05;;
43297;SDS011;28892;55.640;37.532;2023-06-10T06:42:15;3.92;;;2.00;;
43297;SDS011;28892;55.640;37.532;2023-06-10T06:45:36;3.22;;;1.80;;
43297;SDS011;28892;55.640;37.532;2023-06-10T06:48:11;3.13;;;1.98;;
43297;SDS011;28892;55.640;37.532;2023-06-10T06:50:38;4.90;;;2.03;;
43297;SDS011;28892;55.640;37.532;2023-06-10T06:53:05;3.70;;;1.83;;
43297;SDS011;28892;55.640;37.532;2023-06-10T06:56:05;3.83;;;1.80;;
43297;SDS011;28892;55.640;37.532;2023-06-10T06:58:35;2.10;;;1.80;;
43297;SDS011;28892;55.640;37.532;2023-06-10T07:01:05;3.97;;;2.17;;
43297;SDS011;28892;55.640;37.532;2023-06-10T07:03:43;5.50;;;2.13;;
43297;SDS011;28892;55.640;37.532;2023-06-10T07:06:13;2.47;;;1.80;;
43297;SDS011;28892;55.640;37.532;2023-06-10T07:08:46;4.38;;;2.25;;
43297;SDS011;28892;55.640;37.532;2023-06-10T07:11:37;2.58;;;1.90;;
43297;SDS011;28892;55.640;37.532;2023-06-10T07:14:16;3.75;;;2.08;;
43297;SDS011;28892;55.640;37.532;2023-06-10T07:16:50;3.80;;;2.20;;
43297;SDS011;28892;55.640;37.532;2023-06-10T07:19:16;3.80;;;1.80;;
43297;SDS011;28892;55.640;37.532;2023-06-10T07:25:20;5.90;;;2.00;;
43297;SDS011;28892;55.640;37.532;2023-06-10T07:27:46;2.83;;;1.80;;
43297;SDS011;28892;55.640;37.532;2023-06-10T07:30:15;3.78;;;1.42;;
43297;SDS011;28892;55.640;37.532;2023-06-10T07:32:59;2.83;;;1.65;;
43297;SDS011;28892;55.640;37.532;2023-06-10T07:35:26;3.20;;;1.70;;
43297;SDS011;28892;55.640;37.532;2023-06-10T07:37:52;2.80;;;2.05;;
43297;SDS011;28892;55.640;37.532;2023-06-10T07:43:36;3.78;;;2.60;;
43297;SDS011;28892;55.640;37.532;2023-06-10T07:46:11;3.53;;;1.70;;
43297;SDS011;28892;55.640;37.532;2023-06-10T07:48:40;4.18;;;2.17;;
43297;SDS011;28892;55.640;37.532;2023-06-10T07:51:22;2.47;;;1.52;;
43297;SDS011;28892;55.640;37.532;2023-06-10T07:53:48;3.20;;;1.60;;
43297;SDS011;28892;55.640;37.532;2023-06-10T07:56:20;5.80;;;1.67;;
43297;SDS011;28892;55.640;37.532;2023-06-10T07:58:50;3.67;;;2.25;;
43297;SDS011;28892;55.640;37.532;2023-06-10T08:01:15;2.97;;;1.73;;
43297;SDS011;28892;55.640;37.532;2023-06-10T08:03:42;1.92;;;1.30;;
43297;SDS011;28892;55.640;37.532;2023-06-10T08:06:08;4.28;;;1.70;;
43297;SDS011;28892;55.640;37.532;2023-06-10T08:08:36;2.50;;;2.03;;
43297;SDS011;28892;55.640;37.532;2023-06-10T08:11:07;4.45;;;2.40;;
43297;SDS011;28892;55.640;37.532;2023-06-10T08:13:33;3.00;;;2.03;;
43297;SDS011;28892;55.640;37.532;2023-06-10T08:16:02;6.40;;;3.50;;
43297;SDS011;28892;55.640;37.532;2023-06-10T08:18:37;2.83;;;2.45;;
43297;SDS011;28892;55.640;37.532;2023-06-10T08:21:09;2.13;;;1.92;;
43297;SDS011;28892;55.640;37.532;2023-06-10T08:23:36;3.28;;;2.03;;
43297;SDS011;28892;55.640;37.532;2023-06-10T08:26:05;2.40;;;2.20;;
43297;SDS011;28892;55.640;37.532;2023-06-10T08:31:48;10.38;;;7.35;;
43297;SDS011;28892;55.640;37.532;2023-06-10T08:34:53;7.93;;;4.15;;
43297;SDS011;28892;55.640;37.532;2023-06-10T08:37:59;7.43;;;6.40;;
43297;SDS011;28892;55.640;37.532;2023-06-10T08:40:47;11.23;;;7.60;;
43297;SDS011;28892;55.640;37.532;2023-06-10T08:43:59;5.45;;;3.00;;
43297;SDS011;28892;55.640;37.532;2023-06-10T08:46:28;3.25;;;2.53;;
43297;SDS011;28892;55.640;37.532;2023-06-10T08:49:00;3.10;;;2.05;;
43297;SDS011;28892;55.640;37.532;2023-06-10T08:52:53;2.38;;;2.17;;
43297;SDS011;28892;55.640;37.532;2023-06-10T08:56:28;4.25;;;2.33;;
43297;SDS011;28892;55.640;37.532;2023-06-10T08:59:26;3.78;;;2.03;;
43297;SDS011;28892;55.640;37.532;2023-06-10T09:02:13;6.05;;;2.08;;
43297;SDS011;28892;55.640;37.532;2023-06-10T09:05:50;5.53;;;1.75;;
43297;SDS011;28892;55.640;37.532;2023-06-10T09:16:47;2.00;;;1.55;;
43297;SDS011;28892;55.640;37.532;2023-06-10T09:19:18;2.45;;;1.50;;
43297;SDS011;28892;55.640;37.532;2023-06-10T09:22:14;3.25;;;1.52;;
43297;SDS011;28892;55.640;37.532;2023-06-10T09:25:04;4.45;;;2.00;;
43297;SDS011;28892;55.640;37.532;2023-06-10T09:31:20;3.28;;;1.30;;
43297;SDS011;28892;55.640;37.532;2023-06-10T09:34:25;3.67;;;1.70;;
43297;SDS011;28892;55.640;37.532;2023-06-10T09:38:01;3.70;;;1.35;;
43297;SDS011;28892;55.640;37.532;2023-06-10T09:40:52;3.22;;;2.00;;
43297;SDS011;28892;55.640;37.532;2023-06-10T09:44:01;3.88;;;1.75;;
43297;SDS011;28892;55.640;37.532;2023-06-10T09:47:31;2.78;;;1.48;;
43297;SDS011;28892;55.640;37.532;2023-06-10T09:52:50;2.67;;;1.10;;
43297;SDS011;28892;55.640;37.532;2023-06-10T09:55:20;2.75;;;1.20;;
43297;SDS011;28892;55.640;37.532;2023-06-10T09:57:49;3.13;;;1.30;;
43297;SDS011;28892;55.640;37.532;2023-06-10T10:00:17;3.15;;;1.30;;
43297;SDS011;28892;55.640;37.532;2023-06-10T10:02:51;3.70;;;1.33;;
43297;SDS011;28892;55.640;37.532;2023-06-10T10:05:20;1.35;;;1.10;;
43297;SDS011;28892;55.640;37.532;2023-06-10T10:07:50;1.30;;;1.10;;
43297;SDS011;28892;55.640;37.532;2023-06-10T10:10:18;2.17;;;1.30;;
43297;SDS011;28892;55.640;37.532;2023-06-10T10:12:46;3.65;;;1.40;;
43297;SDS011;28892;55.640;37.532;2023-06-10T10:15:13;2.10;;;1.88;;
43297;SDS011;28892;55.640;37.532;2023-06-10T10:20:24;4.03;;;1.60;;
43297;SDS011;28892;55.640;37.532;2023-06-10T10:22:57;2.05;;;1.40;;
43297;SDS011;28892;55.640;37.532;2023-06-10T10:25:38;3.15;;;1.38;;
43297;SDS011;28892;55.640;37.532;2023-06-10T10:28:11;1.63;;;1.35;;
43297;SDS011;28892;55.640;37.532;2023-06-10T10:30:49;2.72;;;1.40;;
43297;SDS011;28892;55.640;37.532;2023-06-10T10:34:00;3.47;;;1.58;;
43297;SDS011;28892;55.640;37.532;2023-06-10T10:36:15;5.20;;;1.50;;
43297;SDS011;28892;55.640;37.532;2023-06-10T10:38:42;3.72;;;1.63;;
43297;SDS011;28892;55.640;37.532;2023-06-10T10:41:10;1.67;;;1.20;;
43297;SDS011;28892;55.640;37.532;2023-06-10T10:43:36;2.95;;;1.27;;
43297;SDS011;28892;55.640;37.532;2023-06-10T10:46:08;2.67;;;1.30;;
43297;SDS011;28892;55.640;37.532;2023-06-10T10:48:40;2.05;;;1.45;;
43297;SDS011;28892;55.640;37.532;2023-06-10T10:51:09;2.42;;;1.30;;
43297;SDS011;28892;55.640;37.532;2023-06-10T10:53:37;2.85;;;1.30;;
43297;SDS011;28892;55.640;37.532;2023-06-10T10:56:09;4.57;;;1.73;;
43297;SDS011;28892;55.640;37.532;2023-06-10T10:58:39;2.38;;;1.40;;
43297;SDS011;28892;55.640;37.532;2023-06-10T11:01:12;1.85;;;1.30;;
43297;SDS011;28892;55.640;37.532;2023-06-10T11:03:43;2.45;;;1.35;;
43297;SDS011;28892;55.640;37.532;2023-06-10T11:06:16;2.40;;;1.50;;
43297;SDS011;28892;55.640;37.532;2023-06-10T11:11:25;1.42;;;1.23;;
43297;SDS011;28892;55.640;37.532;2023-06-10T11:16:40;2.33;;;1.50;;
43297;SDS011;28892;55.640;37.532;2023-06-10T11:19:07;2.45;;;1.33;;
43297;SDS011;28892;55.640;37.532;2023-06-10T11:22:18;1.92;;;1.30;;
43297;SDS011;28892;55.640;37.532;2023-06-10T11:24:29;1.98;;;1.40;;
43297;SDS011;28892;55.640;37.532;2023-06-10T11:27:14;2.15;;;1.42;;
43297;SDS011;28892;55.640;37.532;2023-06-10T11:32:30;3.30;;;1.90;;
43297;SDS011;28892;55.640;37.532;2023-06-10T11:35:02;7.60;;;4.75;;
43297;SDS011;28892;55.640;37.532;2023-06-10T11:37:29;3.25;;;2.30;;
43297;SDS011;28892;55.640;37.532;2023-06-10T11:39:55;2.80;;;1.90;;
43297;SDS011;28892;55.640;37.532;2023-06-10T11:42:22;4.38;;;1.83;;
43297;SDS011;28892;55.640;37.532;2023-06-10T11:44:51;4.47;;;1.52;;
43297;SDS011;28892;55.640;37.532;2023-06-10T11:47:19;2.25;;;1.60;;
43297;SDS011;28892;55.640;37.532;2023-06-10T11:49:45;7.00;;;1.80;;
43297;SDS011;28892;55.640;37.532;2023-06-10T11:52:27;4.47;;;1.90;;
43297;SDS011;28892;55.640;37.532;2023-06-10T11:55:06;3.20;;;2.05;;
43297;SDS011;28892;55.640;37.532;2023-06-10T11:57:35;5.03;;;1.50;;
43297;SDS011;28892;55.640;37.532;2023-06-10T12:00:05;4.68;;;1.70;;
43297;SDS011;28892;55.640;37.532;2023-06-10T12:02:37;3.65;;;1.48;;
43297;SDS011;28892;55.640;37.532;2023-06-10T12:05:09;4.55;;;2.03;;
43297;SDS011;28892;55.640;37.532;2023-06-10T12:07:41;14.55;;;2.00;;
43297;SDS011;28892;55.640;37.532;2023-06-10T12:10:07;4.10;;;1.65;;
43297;SDS011;28892;55.640;37.532;2023-06-10T12:12:34;23.02;;;2.10;;
43297;SDS011;28892;55.640;37.532;2023-06-10T12:15:02;2.80;;;1.90;;
43297;SDS011;28892;55.640;37.532;2023-06-10T12:20:24;1.95;;;1.50;;
43297;SDS011;28892;55.640;37.532;2023-06-10T12:23:09;2.92;;;1.95;;
43297;SDS011;28892;55.640;37.532;2023-06-10T12:25:53;2.58;;;2.03;;
43297;SDS011;28892;55.640;37.532;2023-06-10T12:28:22;3.63;;;2.00;;
43297;SDS011;28892;55.640;37.532;2023-06-10T12:31:06;2.80;;;1.75;;
43297;SDS011;28892;55.640;37.532;2023-06-10T12:33:33;3.47;;;1.70;;
43297;SDS011;28892;55.640;37.532;2023-06-10T12:36:04;4.57;;;2.20;;
43297;SDS011;28892;55.640;37.532;2023-06-10T12:38:41;3.90;;;2.50;;
43297;SDS011;28892;55.640;37.532;2023-06-10T12:41:10;2.67;;;2.42;;
43297;SDS011;28892;55.640;37.532;2023-06-10T12:43:36;3.50;;;2.22;;
43297;SDS011;28892;55.640;37.532;2023-06-10T12:46:08;2.10;;;1.70;;
43297;SDS011;28892;55.640;37.532;2023-06-10T12:48:49;4.68;;;2.40;;
43297;SDS011;28892;55.640;37.532;2023-06-10T12:51:20;4.88;;;2.45;;
43297;SDS011;28892;55.640;37.532;2023-06-10T12:53:48;3.33;;;1.60;;
43297;SDS011;28892;55.640;37.532;2023-06-10T12:56:19;2.60;;;1.40;;
43297;SDS011;28892;55.640;37.532;2023-06-10T12:58:54;4.03;;;1.30;;
43297;SDS011;28892;55.640;37.532;2023-06-10T13:11:05;2.22;;;1.48;;
43297;SDS011;28892;55.640;37.532;2023-06-10T13:13:36;4.57;;;2.30;;
43297;SDS011;28892;55.640;37.532;2023-06-10T13:23:56;2.85;;;1.70;;
43297;SDS011;28892;55.640;37.532;2023-06-10T13:26:25;2.88;;;1.55;;
43297;SDS011;28892;55.640;37.532;2023-06-10T13:32:07;5.25;;;3.53;;
43297;SDS011;28892;55.640;37.532;2023-06-10T13:34:33;2.85;;;2.30;;
43297;SDS011;28892;55.640;37.532;2023-06-10T13:37:02;5.07;;;2.78;;
43297;SDS011;28892;55.640;37.532;2023-06-10T13:39:30;4.68;;;2.10;;
43297;SDS011;28892;55.640;37.532;2023-06-10T13:41:58;3.15;;;1.40;;
43297;SDS011;28892;55.640;37.532;2023-06-10T13:44:27;2.20;;;1.83;;
43297;SDS011;28892;55.640;37.532;2023-06-10T13:46:56;4.43;;;1.50;;
43297;SDS011;28892;55.640;37.532;2023-06-10T13:49:22;5.38;;;1.40;;
43297;SDS011;28892;55.640;37.532;2023-06-10T13:51:51;2.70;;;1.33;;
43297;SDS011;28892;55.640;37.532;2023-06-10T13:54:17;2.22;;;1.40;;
43297;SDS011;28892;55.640;37.532;2023-06-10T13:56:43;5.47;;;2.50;;
43297;SDS011;28892;55.640;37.532;2023-06-10T13:59:08;1.85;;;1.42;;
43297;SDS011;28892;55.640;37.532;2023-06-10T14:01:34;4.00;;;1.55;;
43297;SDS011;28892;55.640;37.532;2023-06-10T14:04:00;1.63;;;1.30;;
43297;SDS011;28892;55.640;37.532;2023-06-10T14:06:28;2.88;;;1.60;;
43297;SDS011;28892;55.640;37.532;2023-06-10T14:09:06;4.22;;;1.75;;
43297;SDS011;28892;55.640;37.532;2023-06-10T14:11:35;4.28;;;1.80;;
43297;SDS011;28892;55.640;37.532;2023-06-10T14:14:00;3.05;;;1.35;;
43297;SDS011;28892;55.640;37.532;2023-06-10T14:16:29;4.72;;;1.02;;
43297;SDS011;28892;55.640;37.532;2023-06-10T14:18:55;1.95;;;1.20;;
43297;SDS011;28892;55.640;37.532;2023-06-10T14:21:24;5.75;;;1.60;;
43297;SDS011;28892;55.640;37.532;2023-06-10T14:24:02;1.60;;;1.20;;
43297;SDS011;28892;55.640;37.532;2023-06-10T14:26:28;2.28;;;1.30;;
43297;SDS011;28892;55.640;37.532;2023-06-10T14:28:56;3.33;;;1.40;;
43297;SDS011;28892;55.640;37.532;2023-06-10T14:31:26;5.20;;;1.48;;
43297;SDS011;28892;55.640;37.532;2023-06-10T14:34:05;3.88;;;1.67;;
43297;SDS011;28892;55.640;37.532;2023-06-10T14:36:56;1.98;;;1.17;;
43297;SDS011;28892;55.640;37.532;2023-06-10T14:39:27;3.45;;;1.60;;
43297;SDS011;28892;55.640;37.532;2023-06-10T14:41:53;3.97;;;1.75;;
43297;SDS011;28892;55.640;37.532;2023-06-10T14:44:22;4.30;;;1.40;;
43297;SDS011;28892;55.640;37.532;2023-06-10T14:47:09;1.98;;;1.40;;
43297;SDS011;28892;55.640;37.532;2023-06-10T14:49:38;5.28;;;1.60;;
43297;SDS011;28892;55.640;37.532;2023-06-10T14:52:07;5.32;;;2.58;;
43297;SDS011;28892;55.640;37.532;2023-06-10T14:54:34;5.18;;;1.98;;
43297;SDS011;28892;55.640;37.532;2023-06-10T14:57:02;6.03;;;1.90;;
43297;SDS011;28892;55.640;37.532;2023-06-10T14:59:47;5.72;;;1.80;;
43297;SDS011;28892;55.640;37.532;2023-06-10T15:02:15;3.03;;;1.67;;
43297;SDS011;28892;55.640;37.532;2023-06-10T15:04:52;1.75;;;1.30;;
43297;SDS011;28892;55.640;37.532;2023-06-10T15:07:18;3.95;;;1.50;;
43297;SDS011;28892;55.640;37.532;2023-06-10T15:09:44;2.17;;;1.60;;
43297;SDS011;28892;55.640;37.532;2023-06-10T15:12:10;3.15;;;1.60;;
43297;SDS011;28892;55.640;37.532;2023-06-10T15:14:38;2.33;;;1.50;;
43297;SDS011;28892;55.640;37.532;2023-06-10T15:17:05;4.80;;;2.10;;
43297;SDS011;28892;55.640;37.532;2023-06-10T15:19:31;5.00;;;1.55;;
43297;SDS011;28892;55.640;37.532;2023-06-10T15:21:56;4.07;;;1.85;;
43297;SDS011;28892;55.640;37.532;2023-06-10T15:24:25;3.97;;;2.10;;
43297;SDS011;28892;55.640;37.532;2023-06-10T15:26:51;5.80;;;1.95;;
43297;SDS011;28892;55.640;37.532;2023-06-10T15:29:20;2.58;;;1.52;;
43297;SDS011;28892;55.640;37.532;2023-06-10T15:31:46;2.15;;;1.30;;
43297;SDS011;28892;55.640;37.532;2023-06-10T15:34:17;1.88;;;1.30;;
43297;SDS011;28892;55.640;37.532;2023-06-10T15:36:43;3.55;;;1.65;;
43297;SDS011;28892;55.640;37.532;2023-06-10T15:39:09;3.58;;;1.67;;
43297;SDS011;28892;55.640;37.532;2023-06-10T15:41:37;1.77;;;1.67;;
43297;SDS011;28892;55.640;37.532;2023-06-10T15:44:03;2.28;;;1.50;;
43297;SDS011;28892;55.640;37.532;2023-06-10T15:46:29;2.58;;;1.50;;
43297;SDS011;28892;55.640;37.532;2023-06-10T15:48:56;3.42;;;1.40;;
43297;SDS011;28892;55.640;37.532;2023-06-10T15:51:22;3.28;;;1.40;;
43297;SDS011;28892;55.640;37.532;2023-06-10T15:53:48;1.77;;;1.25;;
43297;SDS011;28892;55.640;37.532;2023-06-10T15:56:16;1.52;;;1.23;;
43297;SDS011;28892;55.640;37.532;2023-06-10T15:58:44;3.03;;;1.50;;
43297;SDS011;28892;55.640;37.532;2023-06-10T16:01:12;3.92;;;1.48;;
43297;SDS011;28892;55.640;37.532;2023-06-10T16:03:39;3.58;;;1.40;;
43297;SDS011;28892;55.640;37.532;2023-06-10T16:06:09;1.80;;;1.50;;
43297;SDS011;28892;55.640;37.532;2023-06-10T16:08:35;2.38;;;1.40;;
43297;SDS011;28892;55.640;37.532;2023-06-10T16:11:01;3.38;;;2.00;;
43297;SDS011;28892;55.640;37.532;2023-06-10T16:13:32;3.08;;;1.73;;
43297;SDS011;28892;55.640;37.532;2023-06-10T16:15:57;2.95;;;1.63;;
43297;SDS011;28892;55.640;37.532;2023-06-10T16:18:26;2.97;;;1.83;;
43297;SDS011;28892;55.640;37.532;2023-06-10T16:20:52;1.50;;;1.23;;
43297;SDS011;28892;55.640;37.532;2023-06-10T16:23:18;3.80;;;1.73;;
43297;SDS011;28892;55.640;37.532;2023-06-10T16:25:47;3.17;;;1.48;;
43297;SDS011;28892;55.640;37.532;2023-06-10T16:28:15;3.25;;;1.60;;
43297;SDS011;28892;55.640;37.532;2023-06-10T16:30:41;4.40;;;1.88;;
43297;SDS011;28892;55.640;37.532;2023-06-10T16:33:10;5.13;;;1.70;;
43297;SDS011;28892;55.640;37.532;2023-06-10T16:35:36;7.10;;;2.05;;
43297;SDS011;28892;55.640;37.532;2023-06-10T16:38:02;3.30;;;1.60;;
43297;SDS011;28892;55.640;37.532;2023-06-10T16:40:29;3.42;;;1.50;;
43297;SDS011;28892;55.640;37.532;2023-06-10T16:42:55;4.30;;;2.20;;
43297;SDS011;28892;55.640;37.532;2023-06-10T16:45:21;4.25;;;1.60;;
43297;SDS011;28892;55.640;37.532;2023-06-10T16:47:47;3.10;;;1.52;;